KSTP/STP METAR and TAF weather

Enter ICAO airport designator
Station Type Date Time Source
KSTP METAR 2021/08/05 03:53 UTC NOAA

KSTP 050353Z AUTO 17005KT 10SM CLR 23/15 A3002 RMK AO2 SLP159 T02330150


Station Type Date Time Source
KSTP Decoded METAR 2021/08/05 03:53 UTC NOAA

DOWNTOWN HOLMAN FIELD, MN, United States (KSTP) 44-56N 093-03W 219M
Aug 04, 2021 - 11:53 PM EDT / 2021.08.05 0353 UTC
Wind: from the S (170 degrees) at 6 MPH (5 KT):0
Visibility: 10 mile(s):0
Sky conditions: clear
Temperature: 73.9 F (23.3 C)
Dew Point: 59.0 F (15.0 C)
Relative Humidity: 59%
Pressure (altimeter): 30.02 in. Hg (1016 hPa)
ob: KSTP 050353Z AUTO 17005KT 10SM CLR 23/15 A3002 RMK AO2 SLP159 T02330150
cycle: 4

Station Type Date Time Source
KSTP TAF 2018/02/05 20:57 UTC NOAA

TAF
AMD KSTP 051957Z 0520/0618 25007KT P6SM VCSH BKN020 OVC050
TEMPO 0520/0522 SCT020
FM052200 26006KT P6SM FEW020 BKN110
FM060100 31006KT P6SM FEW100
AMD NOT SKED

Example: see airport list